sensor_id;sensor_type;location;lat;lon;timestamp;P1;durP1;ratioP1;P2;durP2;ratioP2
53409;SDS011;66590;50.734;4.246;2023-05-07T00:00:53;9.18;;;4.22;;
53409;SDS011;66590;50.734;4.246;2023-05-07T00:03:20;9.10;;;4.47;;
53409;SDS011;66590;50.734;4.246;2023-05-07T00:05:48;9.75;;;4.13;;
53409;SDS011;66590;50.734;4.246;2023-05-07T00:08:15;9.05;;;4.63;;
53409;SDS011;66590;50.734;4.246;2023-05-07T00:10:43;9.30;;;4.80;;
53409;SDS011;66590;50.734;4.246;2023-05-07T00:13:10;9.73;;;4.15;;
53409;SDS011;66590;50.734;4.246;2023-05-07T00:15:37;9.27;;;4.65;;
53409;SDS011;66590;50.734;4.246;2023-05-07T00:18:04;12.23;;;5.05;;
53409;SDS011;66590;50.734;4.246;2023-05-07T00:20:32;10.55;;;5.63;;
53409;SDS011;66590;50.734;4.246;2023-05-07T00:23:01;9.75;;;4.57;;
53409;SDS011;66590;50.734;4.246;2023-05-07T00:25:28;10.90;;;5.10;;
53409;SDS011;66590;50.734;4.246;2023-05-07T00:27:56;11.05;;;4.97;;
53409;SDS011;66590;50.734;4.246;2023-05-07T00:30:23;10.88;;;4.93;;
53409;SDS011;66590;50.734;4.246;2023-05-07T00:32:50;11.85;;;6.22;;
53409;SDS011;66590;50.734;4.246;2023-05-07T00:35:17;12.32;;;5.63;;
53409;SDS011;66590;50.734;4.246;2023-05-07T00:37:44;10.13;;;5.20;;
53409;SDS011;66590;50.734;4.246;2023-05-07T00:40:11;8.75;;;4.90;;
53409;SDS011;66590;50.734;4.246;2023-05-07T00:42:39;11.25;;;5.47;;
53409;SDS011;66590;50.734;4.246;2023-05-07T00:45:08;11.70;;;5.55;;
53409;SDS011;66590;50.734;4.246;2023-05-07T00:47:35;11.55;;;5.57;;
53409;SDS011;66590;50.734;4.246;2023-05-07T00:50:03;12.07;;;5.25;;
53409;SDS011;66590;50.734;4.246;2023-05-07T00:52:31;10.68;;;5.07;;
53409;SDS011;66590;50.734;4.246;2023-05-07T00:54:58;9.25;;;4.88;;
53409;SDS011;66590;50.734;4.246;2023-05-07T00:57:32;11.05;;;5.57;;
53409;SDS011;66590;50.734;4.246;2023-05-07T01:00:03;10.85;;;5.18;;
53409;SDS011;66590;50.734;4.246;2023-05-07T01:02:31;9.88;;;5.35;;
53409;SDS011;66590;50.734;4.246;2023-05-07T01:04:59;10.30;;;5.10;;
53409;SDS011;66590;50.734;4.246;2023-05-07T01:07:27;10.93;;;5.43;;
53409;SDS011;66590;50.734;4.246;2023-05-07T01:09:55;12.20;;;5.35;;
53409;SDS011;66590;50.734;4.246;2023-05-07T01:12:23;13.65;;;5.60;;
53409;SDS011;66590;50.734;4.246;2023-05-07T01:14:51;10.30;;;4.78;;
53409;SDS011;66590;50.734;4.246;2023-05-07T01:17:18;12.63;;;5.63;;
53409;SDS011;66590;50.734;4.246;2023-05-07T01:19:47;10.60;;;5.20;;
53409;SDS011;66590;50.734;4.246;2023-05-07T01:22:14;11.18;;;5.38;;
53409;SDS011;66590;50.734;4.246;2023-05-07T01:24:46;11.10;;;5.25;;
53409;SDS011;66590;50.734;4.246;2023-05-07T01:27:13;9.85;;;4.88;;
53409;SDS011;66590;50.734;4.246;2023-05-07T01:29:40;6.82;;;4.95;;
53409;SDS011;66590;50.734;4.246;2023-05-07T01:32:07;9.10;;;4.50;;
53409;SDS011;66590;50.734;4.246;2023-05-07T01:34:35;9.45;;;4.90;;
53409;SDS011;66590;50.734;4.246;2023-05-07T01:37:03;13.13;;;6.13;;
53409;SDS011;66590;50.734;4.246;2023-05-07T01:39:31;12.43;;;4.90;;
53409;SDS011;66590;50.734;4.246;2023-05-07T01:42:00;11.75;;;5.70;;
53409;SDS011;66590;50.734;4.246;2023-05-07T01:44:28;9.60;;;5.05;;
53409;SDS011;66590;50.734;4.246;2023-05-07T01:46:55;12.60;;;5.70;;
53409;SDS011;66590;50.734;4.246;2023-05-07T01:49:23;11.25;;;5.32;;
53409;SDS011;66590;50.734;4.246;2023-05-07T01:51:50;10.90;;;5.10;;
53409;SDS011;66590;50.734;4.246;2023-05-07T01:54:17;10.07;;;5.30;;
53409;SDS011;66590;50.734;4.246;2023-05-07T01:56:44;7.10;;;4.88;;
53409;SDS011;66590;50.734;4.246;2023-05-07T01:59:13;10.40;;;5.60;;
53409;SDS011;66590;50.734;4.246;2023-05-07T02:01:46;8.38;;;4.70;;
53409;SDS011;66590;50.734;4.246;2023-05-07T02:04:13;9.32;;;5.10;;
53409;SDS011;66590;50.734;4.246;2023-05-07T02:06:47;10.00;;;5.07;;
53409;SDS011;66590;50.734;4.246;2023-05-07T02:09:14;11.38;;;5.88;;
53409;SDS011;66590;50.734;4.246;2023-05-07T02:11:48;9.75;;;5.63;;
53409;SDS011;66590;50.734;4.246;2023-05-07T02:14:16;11.15;;;5.70;;
53409;SDS011;66590;50.734;4.246;2023-05-07T02:16:43;8.43;;;5.22;;
53409;SDS011;66590;50.734;4.246;2023-05-07T02:19:17;12.52;;;5.63;;
53409;SDS011;66590;50.734;4.246;2023-05-07T02:21:44;12.63;;;5.40;;
53409;SDS011;66590;50.734;4.246;2023-05-07T02:24:18;10.35;;;5.35;;
53409;SDS011;66590;50.734;4.246;2023-05-07T02:26:45;10.93;;;5.95;;
53409;SDS011;66590;50.734;4.246;2023-05-07T02:29:12;10.30;;;5.82;;
53409;SDS011;66590;50.734;4.246;2023-05-07T02:31:46;11.75;;;5.90;;
53409;SDS011;66590;50.734;4.246;2023-05-07T02:34:13;10.25;;;5.90;;
53409;SDS011;66590;50.734;4.246;2023-05-07T02:36:47;13.98;;;6.47;;
53409;SDS011;66590;50.734;4.246;2023-05-07T02:39:14;12.70;;;5.78;;
53409;SDS011;66590;50.734;4.246;2023-05-07T02:41:41;9.30;;;5.55;;
53409;SDS011;66590;50.734;4.246;2023-05-07T02:44:14;10.13;;;5.70;;
53409;SDS011;66590;50.734;4.246;2023-05-07T02:46:41;10.68;;;5.63;;
53409;SDS011;66590;50.734;4.246;2023-05-07T02:49:15;9.95;;;5.63;;
53409;SDS011;66590;50.734;4.246;2023-05-07T02:51:42;9.70;;;5.63;;
53409;SDS011;66590;50.734;4.246;2023-05-07T02:54:16;11.05;;;5.45;;
53409;SDS011;66590;50.734;4.246;2023-05-07T02:56:43;9.35;;;5.25;;
53409;SDS011;66590;50.734;4.246;2023-05-07T02:59:10;8.75;;;5.70;;
53409;SDS011;66590;50.734;4.246;2023-05-07T03:01:43;10.82;;;5.93;;
53409;SDS011;66590;50.734;4.246;2023-05-07T03:04:10;10.52;;;5.88;;
53409;SDS011;66590;50.734;4.246;2023-05-07T03:06:45;10.63;;;5.23;;
53409;SDS011;66590;50.734;4.246;2023-05-07T03:09:12;12.38;;;6.15;;
53409;SDS011;66590;50.734;4.246;2023-05-07T03:11:46;14.55;;;5.78;;
53409;SDS011;66590;50.734;4.246;2023-05-07T03:14:21;7.90;;;5.25;;
53409;SDS011;66590;50.734;4.246;2023-05-07T03:16:54;11.52;;;5.32;;
53409;SDS011;66590;50.734;4.246;2023-05-07T03:19:21;9.63;;;5.88;;
53409;SDS011;66590;50.734;4.246;2023-05-07T03:21:49;13.65;;;6.63;;
53409;SDS011;66590;50.734;4.246;2023-05-07T03:24:23;7.50;;;5.25;;
53409;SDS011;66590;50.734;4.246;2023-05-07T03:26:50;10.07;;;5.63;;
53409;SDS011;66590;50.734;4.246;2023-05-07T03:29:23;8.90;;;5.15;;
53409;SDS011;66590;50.734;4.246;2023-05-07T03:31:50;8.82;;;4.60;;
53409;SDS011;66590;50.734;4.246;2023-05-07T03:34:30;9.77;;;5.10;;
53409;SDS011;66590;50.734;4.246;2023-05-07T03:36:58;11.23;;;5.43;;
53409;SDS011;66590;50.734;4.246;2023-05-07T03:39:33;8.98;;;5.68;;
53409;SDS011;66590;50.734;4.246;2023-05-07T03:42:00;10.73;;;5.10;;
53409;SDS011;66590;50.734;4.246;2023-05-07T03:44:33;10.00;;;5.32;;
53409;SDS011;66590;50.734;4.246;2023-05-07T03:47:00;11.38;;;5.60;;
53409;SDS011;66590;50.734;4.246;2023-05-07T03:49:27;10.90;;;5.80;;
53409;SDS011;66590;50.734;4.246;2023-05-07T03:52:01;9.52;;;5.75;;
53409;SDS011;66590;50.734;4.246;2023-05-07T03:54:28;8.98;;;5.38;;
53409;SDS011;66590;50.734;4.246;2023-05-07T03:57:03;11.13;;;5.28;;
53409;SDS011;66590;50.734;4.246;2023-05-07T03:59:30;10.63;;;5.47;;
53409;SDS011;66590;50.734;4.246;2023-05-07T04:01:57;9.25;;;5.38;;
53409;SDS011;66590;50.734;4.246;2023-05-07T04:04:31;9.10;;;4.97;;
53409;SDS011;66590;50.734;4.246;2023-05-07T04:06:58;10.95;;;5.63;;
53409;SDS011;66590;50.734;4.246;2023-05-07T04:09:33;9.80;;;5.17;;
53409;SDS011;66590;50.734;4.246;2023-05-07T04:12:00;11.40;;;4.55;;
53409;SDS011;66590;50.734;4.246;2023-05-07T04:14:34;11.85;;;5.20;;
53409;SDS011;66590;50.734;4.246;2023-05-07T04:17:01;10.52;;;5.78;;
53409;SDS011;66590;50.734;4.246;2023-05-07T04:19:28;11.68;;;5.47;;
53409;SDS011;66590;50.734;4.246;2023-05-07T04:22:01;10.30;;;6.15;;
53409;SDS011;66590;50.734;4.246;2023-05-07T04:24:30;10.25;;;5.20;;
53409;SDS011;66590;50.734;4.246;2023-05-07T04:27:05;10.13;;;5.35;;
53409;SDS011;66590;50.734;4.246;2023-05-07T04:29:32;9.82;;;5.43;;
53409;SDS011;66590;50.734;4.246;2023-05-07T04:32:06;8.98;;;5.13;;
53409;SDS011;66590;50.734;4.246;2023-05-07T04:34:33;8.13;;;4.97;;
53409;SDS011;66590;50.734;4.246;2023-05-07T04:37:00;5.95;;;4.78;;
53409;SDS011;66590;50.734;4.246;2023-05-07T04:39:34;7.60;;;5.00;;
53409;SDS011;66590;50.734;4.246;2023-05-07T04:42:01;9.32;;;5.22;;
53409;SDS011;66590;50.734;4.246;2023-05-07T04:44:35;10.95;;;5.53;;
53409;SDS011;66590;50.734;4.246;2023-05-07T04:47:02;8.80;;;4.93;;
53409;SDS011;66590;50.734;4.246;2023-05-07T04:49:36;7.97;;;5.60;;
53409;SDS011;66590;50.734;4.246;2023-05-07T04:52:04;10.02;;;5.90;;
53409;SDS011;66590;50.734;4.246;2023-05-07T04:54:37;10.88;;;5.68;;
53409;SDS011;66590;50.734;4.246;2023-05-07T04:57:04;10.82;;;5.57;;
53409;SDS011;66590;50.734;4.246;2023-05-07T04:59:31;9.38;;;5.28;;
53409;SDS011;66590;50.734;4.246;2023-05-07T05:02:06;8.85;;;5.13;;
53409;SDS011;66590;50.734;4.246;2023-05-07T05:04:33;9.73;;;5.28;;
53409;SDS011;66590;50.734;4.246;2023-05-07T05:07:07;11.48;;;6.10;;
53409;SDS011;66590;50.734;4.246;2023-05-07T05:09:34;8.48;;;5.75;;
53409;SDS011;66590;50.734;4.246;2023-05-07T05:12:01;12.70;;;6.38;;
53409;SDS011;66590;50.734;4.246;2023-05-07T05:14:35;10.60;;;6.25;;
53409;SDS011;66590;50.734;4.246;2023-05-07T05:17:02;10.32;;;5.93;;
53409;SDS011;66590;50.734;4.246;2023-05-07T05:19:37;7.53;;;5.80;;
53409;SDS011;66590;50.734;4.246;2023-05-07T05:22:04;11.38;;;6.53;;
53409;SDS011;66590;50.734;4.246;2023-05-07T05:24:31;12.13;;;6.22;;
53409;SDS011;66590;50.734;4.246;2023-05-07T05:27:05;12.73;;;7.15;;
53409;SDS011;66590;50.734;4.246;2023-05-07T05:29:32;14.95;;;8.07;;
53409;SDS011;66590;50.734;4.246;2023-05-07T05:32:06;13.45;;;8.07;;
53409;SDS011;66590;50.734;4.246;2023-05-07T05:34:33;12.35;;;7.60;;
53409;SDS011;66590;50.734;4.246;2023-05-07T05:37:01;15.05;;;7.65;;
53409;SDS011;66590;50.734;4.246;2023-05-07T05:39:35;10.80;;;7.30;;
53409;SDS011;66590;50.734;4.246;2023-05-07T05:42:02;14.48;;;7.53;;
53409;SDS011;66590;50.734;4.246;2023-05-07T05:44:36;12.90;;;8.18;;
53409;SDS011;66590;50.734;4.246;2023-05-07T05:47:03;15.05;;;8.45;;
53409;SDS011;66590;50.734;4.246;2023-05-07T05:49:37;18.93;;;8.47;;
53409;SDS011;66590;50.734;4.246;2023-05-07T05:52:05;14.63;;;7.93;;
53409;SDS011;66590;50.734;4.246;2023-05-07T05:54:39;12.95;;;8.30;;
53409;SDS011;66590;50.734;4.246;2023-05-07T05:57:06;12.88;;;8.50;;
53409;SDS011;66590;50.734;4.246;2023-05-07T05:59:33;18.05;;;8.18;;
53409;SDS011;66590;50.734;4.246;2023-05-07T06:02:06;12.30;;;8.02;;
53409;SDS011;66590;50.734;4.246;2023-05-07T06:04:33;15.20;;;8.15;;
53409;SDS011;66590;50.734;4.246;2023-05-07T06:07:08;12.30;;;8.27;;
53409;SDS011;66590;50.734;4.246;2023-05-07T06:09:35;16.70;;;8.38;;
53409;SDS011;66590;50.734;4.246;2023-05-07T06:12:09;16.70;;;9.00;;
53409;SDS011;66590;50.734;4.246;2023-05-07T06:14:36;12.70;;;8.50;;
53409;SDS011;66590;50.734;4.246;2023-05-07T06:17:10;18.98;;;8.43;;
53409;SDS011;66590;50.734;4.246;2023-05-07T06:19:37;13.65;;;8.40;;
53409;SDS011;66590;50.734;4.246;2023-05-07T06:22:04;17.25;;;9.02;;
53409;SDS011;66590;50.734;4.246;2023-05-07T06:24:38;12.63;;;8.75;;
53409;SDS011;66590;50.734;4.246;2023-05-07T06:27:05;16.13;;;9.48;;
53409;SDS011;66590;50.734;4.246;2023-05-07T06:29:39;17.80;;;9.80;;
53409;SDS011;66590;50.734;4.246;2023-05-07T06:32:06;14.35;;;8.65;;
53409;SDS011;66590;50.734;4.246;2023-05-07T06:34:40;15.05;;;9.57;;
53409;SDS011;66590;50.734;4.246;2023-05-07T06:37:07;17.20;;;9.32;;
53409;SDS011;66590;50.734;4.246;2023-05-07T06:39:34;16.60;;;10.07;;
53409;SDS011;66590;50.734;4.246;2023-05-07T06:42:09;15.27;;;9.82;;
53409;SDS011;66590;50.734;4.246;2023-05-07T06:44:39;14.77;;;9.88;;
53409;SDS011;66590;50.734;4.246;2023-05-07T06:47:13;16.02;;;10.30;;
53409;SDS011;66590;50.734;4.246;2023-05-07T06:49:41;14.95;;;9.82;;
53409;SDS011;66590;50.734;4.246;2023-05-07T06:52:15;14.32;;;9.70;;
53409;SDS011;66590;50.734;4.246;2023-05-07T06:54:42;14.35;;;9.93;;
53409;SDS011;66590;50.734;4.246;2023-05-07T06:57:10;18.40;;;9.57;;
53409;SDS011;66590;50.734;4.246;2023-05-07T06:59:44;14.63;;;10.02;;
53409;SDS011;66590;50.734;4.246;2023-05-07T07:02:11;13.77;;;9.52;;
53409;SDS011;66590;50.734;4.246;2023-05-07T07:04:38;15.98;;;10.05;;
53409;SDS011;66590;50.734;4.246;2023-05-07T07:07:11;13.32;;;8.88;;
53409;SDS011;66590;50.734;4.246;2023-05-07T07:09:38;16.55;;;10.18;;
53409;SDS011;66590;50.734;4.246;2023-05-07T07:12:13;13.85;;;9.52;;
53409;SDS011;66590;50.734;4.246;2023-05-07T07:14:40;14.55;;;10.07;;
53409;SDS011;66590;50.734;4.246;2023-05-07T07:17:14;15.30;;;9.50;;
53409;SDS011;66590;50.734;4.246;2023-05-07T07:19:41;15.45;;;10.65;;
53409;SDS011;66590;50.734;4.246;2023-05-07T07:22:08;17.20;;;10.55;;
53409;SDS011;66590;50.734;4.246;2023-05-07T07:24:42;16.20;;;10.43;;
53409;SDS011;66590;50.734;4.246;2023-05-07T07:27:09;14.70;;;9.98;;
53409;SDS011;66590;50.734;4.246;2023-05-07T07:29:37;14.23;;;9.82;;
53409;SDS011;66590;50.734;4.246;2023-05-07T07:32:04;14.82;;;9.05;;
53409;SDS011;66590;50.734;4.246;2023-05-07T07:34:31;18.42;;;10.10;;
53409;SDS011;66590;50.734;4.246;2023-05-07T07:36:58;13.18;;;9.65;;
53409;SDS011;66590;50.734;4.246;2023-05-07T07:39:25;16.85;;;10.38;;
53409;SDS011;66590;50.734;4.246;2023-05-07T07:41:52;13.68;;;9.82;;
53409;SDS011;66590;50.734;4.246;2023-05-07T07:44:19;16.38;;;9.27;;
53409;SDS011;66590;50.734;4.246;2023-05-07T07:46:47;14.55;;;8.70;;
53409;SDS011;66590;50.734;4.246;2023-05-07T07:49:14;16.50;;;10.23;;
53409;SDS011;66590;50.734;4.246;2023-05-07T07:51:41;14.20;;;9.10;;
53409;SDS011;66590;50.734;4.246;2023-05-07T07:54:09;12.63;;;8.90;;
53409;SDS011;66590;50.734;4.246;2023-05-07T07:56:35;11.98;;;8.90;;
53409;SDS011;66590;50.734;4.246;2023-05-07T07:59:02;14.43;;;8.95;;
53409;SDS011;66590;50.734;4.246;2023-05-07T08:01:30;13.02;;;8.68;;
53409;SDS011;66590;50.734;4.246;2023-05-07T08:03:58;13.38;;;9.32;;
53409;SDS011;66590;50.734;4.246;2023-05-07T08:06:26;16.15;;;9.27;;
53409;SDS011;66590;50.734;4.246;2023-05-07T08:08:53;13.10;;;8.52;;
53409;SDS011;66590;50.734;4.246;2023-05-07T08:11:20;14.60;;;9.60;;
53409;SDS011;66590;50.734;4.246;2023-05-07T08:13:47;11.45;;;8.90;;
53409;SDS011;66590;50.734;4.246;2023-05-07T08:16:14;12.40;;;8.52;;
53409;SDS011;66590;50.734;4.246;2023-05-07T08:18:41;10.88;;;8.30;;
53409;SDS011;66590;50.734;4.246;2023-05-07T08:21:10;10.40;;;8.27;;
53409;SDS011;66590;50.734;4.246;2023-05-07T08:23:37;11.45;;;8.65;;
53409;SDS011;66590;50.734;4.246;2023-05-07T08:26:04;12.65;;;8.68;;
53409;SDS011;66590;50.734;4.246;2023-05-07T08:28:30;15.02;;;8.95;;
53409;SDS011;66590;50.734;4.246;2023-05-07T08:30:58;13.02;;;8.85;;
53409;SDS011;66590;50.734;4.246;2023-05-07T08:33:25;10.60;;;8.40;;
53409;SDS011;66590;50.734;4.246;2023-05-07T08:35:52;12.15;;;8.73;;
53409;SDS011;66590;50.734;4.246;2023-05-07T08:38:20;11.70;;;8.65;;
53409;SDS011;66590;50.734;4.246;2023-05-07T08:40:47;14.07;;;8.60;;
53409;SDS011;66590;50.734;4.246;2023-05-07T08:43:14;11.30;;;8.23;;
53409;SDS011;66590;50.734;4.246;2023-05-07T08:45:41;15.68;;;10.25;;
53409;SDS011;66590;50.734;4.246;2023-05-07T08:48:14;12.20;;;9.65;;
53409;SDS011;66590;50.734;4.246;2023-05-07T08:50:41;16.38;;;10.75;;
53409;SDS011;66590;50.734;4.246;2023-05-07T08:53:08;13.68;;;9.85;;
53409;SDS011;66590;50.734;4.246;2023-05-07T08:55:37;10.60;;;8.98;;
53409;SDS011;66590;50.734;4.246;2023-05-07T08:58:04;13.43;;;9.07;;
53409;SDS011;66590;50.734;4.246;2023-05-07T09:00:31;11.43;;;9.25;;
53409;SDS011;66590;50.734;4.246;2023-05-07T09:02:59;13.77;;;10.30;;
53409;SDS011;66590;50.734;4.246;2023-05-07T09:05:27;12.30;;;10.00;;
53409;SDS011;66590;50.734;4.246;2023-05-07T09:07:54;11.18;;;10.00;;
53409;SDS011;66590;50.734;4.246;2023-05-07T09:10:23;14.82;;;10.30;;
53409;SDS011;66590;50.734;4.246;2023-05-07T09:12:53;12.13;;;10.00;;
53409;SDS011;66590;50.734;4.246;2023-05-07T09:15:20;12.82;;;9.45;;
53409;SDS011;66590;50.734;4.246;2023-05-07T09:17:47;11.50;;;7.40;;
53409;SDS011;66590;50.734;4.246;2023-05-07T09:20:14;9.32;;;7.38;;
53409;SDS011;66590;50.734;4.246;2023-05-07T09:22:43;9.98;;;7.90;;
53409;SDS011;66590;50.734;4.246;2023-05-07T09:25:10;9.60;;;7.57;;
53409;SDS011;66590;50.734;4.246;2023-05-07T09:27:37;10.75;;;7.10;;
53409;SDS011;66590;50.734;4.246;2023-05-07T09:30:06;12.70;;;8.02;;
53409;SDS011;66590;50.734;4.246;2023-05-07T09:32:34;10.55;;;7.32;;
53409;SDS011;66590;50.734;4.246;2023-05-07T09:35:02;9.95;;;6.88;;
53409;SDS011;66590;50.734;4.246;2023-05-07T09:37:30;8.68;;;7.07;;
53409;SDS011;66590;50.734;4.246;2023-05-07T09:39:57;9.30;;;7.10;;
53409;SDS011;66590;50.734;4.246;2023-05-07T09:42:24;10.05;;;7.20;;
53409;SDS011;66590;50.734;4.246;2023-05-07T09:44:52;10.55;;;7.90;;
53409;SDS011;66590;50.734;4.246;2023-05-07T09:47:22;11.00;;;7.47;;
53409;SDS011;66590;50.734;4.246;2023-05-07T09:49:50;12.10;;;6.82;;
53409;SDS011;66590;50.734;4.246;2023-05-07T09:52:22;10.18;;;7.70;;
53409;SDS011;66590;50.734;4.246;2023-05-07T09:54:50;11.80;;;7.88;;
53409;SDS011;66590;50.734;4.246;2023-05-07T09:57:17;11.93;;;7.80;;
53409;SDS011;66590;50.734;4.246;2023-05-07T09:59:46;13.48;;;8.32;;
53409;SDS011;66590;50.734;4.246;2023-05-07T10:02:14;10.00;;;7.15;;
53409;SDS011;66590;50.734;4.246;2023-05-07T10:04:43;13.27;;;7.90;;
53409;SDS011;66590;50.734;4.246;2023-05-07T10:07:10;11.07;;;8.35;;
53409;SDS011;66590;50.734;4.246;2023-05-07T10:09:38;12.73;;;8.10;;
53409;SDS011;66590;50.734;4.246;2023-05-07T10:12:06;9.75;;;6.97;;
53409;SDS011;66590;50.734;4.246;2023-05-07T10:14:33;8.95;;;6.72;;
53409;SDS011;66590;50.734;4.246;2023-05-07T10:17:02;11.43;;;7.40;;
53409;SDS011;66590;50.734;4.246;2023-05-07T10:19:29;9.75;;;6.40;;
53409;SDS011;66590;50.734;4.246;2023-05-07T10:21:59;9.80;;;6.90;;
53409;SDS011;66590;50.734;4.246;2023-05-07T10:24:31;7.28;;;5.53;;
53409;SDS011;66590;50.734;4.246;2023-05-07T10:27:00;10.93;;;6.30;;
53409;SDS011;66590;50.734;4.246;2023-05-07T10:29:32;10.38;;;6.38;;
53409;SDS011;66590;50.734;4.246;2023-05-07T10:32:20;8.70;;;5.80;;
53409;SDS011;66590;50.734;4.246;2023-05-07T10:35:02;8.02;;;6.32;;
53409;SDS011;66590;50.734;4.246;2023-05-07T10:37:34;7.38;;;5.45;;
53409;SDS011;66590;50.734;4.246;2023-05-07T10:40:01;7.75;;;6.10;;
53409;SDS011;66590;50.734;4.246;2023-05-07T10:42:29;7.40;;;6.38;;
53409;SDS011;66590;50.734;4.246;2023-05-07T10:44:56;7.93;;;6.45;;
53409;SDS011;66590;50.734;4.246;2023-05-07T10:47:23;8.55;;;5.60;;
53409;SDS011;66590;50.734;4.246;2023-05-07T10:55:51;5.22;;;3.78;;
53409;SDS011;66590;50.734;4.246;2023-05-07T10:58:38;5.72;;;3.80;;
53409;SDS011;66590;50.734;4.246;2023-05-07T11:01:05;9.20;;;4.78;;
53409;SDS011;66590;50.734;4.246;2023-05-07T11:03:32;5.32;;;4.32;;
53409;SDS011;66590;50.734;4.246;2023-05-07T11:06:09;6.57;;;4.15;;
53409;SDS011;66590;50.734;4.246;2023-05-07T11:08:54;6.82;;;4.53;;
53409;SDS011;66590;50.734;4.246;2023-05-07T11:14:14;6.40;;;5.80;;
53409;SDS011;66590;50.734;4.246;2023-05-07T11:17:03;6.70;;;5.95;;
53409;SDS011;66590;50.734;4.246;2023-05-07T11:25:04;6.97;;;5.35;;
53409;SDS011;66590;50.734;4.246;2023-05-07T11:27:36;9.30;;;6.28;;
53409;SDS011;66590;50.734;4.246;2023-05-07T11:30:04;5.70;;;4.95;;
53409;SDS011;66590;50.734;4.246;2023-05-07T11:32:37;7.25;;;5.28;;
53409;SDS011;66590;50.734;4.246;2023-05-07T11:35:09;9.43;;;5.90;;
53409;SDS011;66590;50.734;4.246;2023-05-07T11:37:37;5.80;;;5.20;;
53409;SDS011;66590;50.734;4.246;2023-05-07T11:40:06;6.90;;;6.20;;
53409;SDS011;66590;50.734;4.246;2023-05-07T11:42:35;8.05;;;6.25;;
53409;SDS011;66590;50.734;4.246;2023-05-07T11:45:03;7.50;;;6.80;;
53409;SDS011;66590;50.734;4.246;2023-05-07T11:47:31;7.38;;;6.57;;
53409;SDS011;66590;50.734;4.246;2023-05-07T11:50:03;7.90;;;7.03;;
53409;SDS011;66590;50.734;4.246;2023-05-07T11:52:32;8.15;;;7.22;;
53409;SDS011;66590;50.734;4.246;2023-05-07T11:54:59;9.05;;;7.30;;
53409;SDS011;66590;50.734;4.246;2023-05-07T11:57:27;8.55;;;7.75;;
53409;SDS011;66590;50.734;4.246;2023-05-07T11:59:54;9.95;;;8.40;;
53409;SDS011;66590;50.734;4.246;2023-05-07T12:02:21;10.20;;;9.10;;
53409;SDS011;66590;50.734;4.246;2023-05-07T12:04:48;10.75;;;9.65;;
53409;SDS011;66590;50.734;4.246;2023-05-07T12:07:17;12.48;;;11.27;;
53409;SDS011;66590;50.734;4.246;2023-05-07T12:09:44;13.60;;;12.20;;
53409;SDS011;66590;50.734;4.246;2023-05-07T12:12:12;13.65;;;12.15;;
53409;SDS011;66590;50.734;4.246;2023-05-07T12:14:39;16.65;;;14.35;;
53409;SDS011;66590;50.734;4.246;2023-05-07T12:17:08;17.42;;;15.38;;
53409;SDS011;66590;50.734;4.246;2023-05-07T12:19:36;18.27;;;15.40;;
53409;SDS011;66590;50.734;4.246;2023-05-07T12:22:05;16.17;;;14.52;;
53409;SDS011;66590;50.734;4.246;2023-05-07T12:24:44;16.77;;;14.52;;
53409;SDS011;66590;50.734;4.246;2023-05-07T12:27:12;16.92;;;15.00;;
53409;SDS011;66590;50.734;4.246;2023-05-07T12:29:39;17.77;;;14.70;;
53409;SDS011;66590;50.734;4.246;2023-05-07T12:32:15;15.93;;;13.98;;
53409;SDS011;66590;50.734;4.246;2023-05-07T12:34:42;15.25;;;13.55;;
53409;SDS011;66590;50.734;4.246;2023-05-07T12:37:11;15.43;;;13.80;;
53409;SDS011;66590;50.734;4.246;2023-05-07T12:39:42;15.57;;;13.93;;
53409;SDS011;66590;50.734;4.246;2023-05-07T12:42:14;18.42;;;14.77;;
53409;SDS011;66590;50.734;4.246;2023-05-07T12:44:43;16.90;;;14.98;;
53409;SDS011;66590;50.734;4.246;2023-05-07T12:47:17;18.02;;;16.10;;
53409;SDS011;66590;50.734;4.246;2023-05-07T12:49:44;18.85;;;16.40;;
53409;SDS011;66590;50.734;4.246;2023-05-07T12:52:11;16.70;;;14.75;;
53409;SDS011;66590;50.734;4.246;2023-05-07T12:54:38;16.15;;;14.43;;
53409;SDS011;66590;50.734;4.246;2023-05-07T12:57:07;14.25;;;12.60;;
53409;SDS011;66590;50.734;4.246;2023-05-07T12:59:36;13.85;;;12.43;;
53409;SDS011;66590;50.734;4.246;2023-05-07T13:02:04;14.18;;;12.77;;
53409;SDS011;66590;50.734;4.246;2023-05-07T13:04:36;13.05;;;11.60;;
53409;SDS011;66590;50.734;4.246;2023-05-07T13:07:05;12.95;;;11.65;;
53409;SDS011;66590;50.734;4.246;2023-05-07T13:09:35;11.73;;;10.63;;
53409;SDS011;66590;50.734;4.246;2023-05-07T13:12:04;12.30;;;10.80;;
53409;SDS011;66590;50.734;4.246;2023-05-07T13:14:32;13.50;;;12.13;;
53409;SDS011;66590;50.734;4.246;2023-05-07T13:17:00;14.10;;;12.75;;
53409;SDS011;66590;50.734;4.246;2023-05-07T13:19:30;13.65;;;11.65;;
53409;SDS011;66590;50.734;4.246;2023-05-07T13:21:58;12.75;;;11.55;;
53409;SDS011;66590;50.734;4.246;2023-05-07T13:24:28;12.52;;;11.27;;
53409;SDS011;66590;50.734;4.246;2023-05-07T13:27:13;13.50;;;12.20;;
53409;SDS011;66590;50.734;4.246;2023-05-07T13:30:22;13.77;;;12.35;;
53409;SDS011;66590;50.734;4.246;2023-05-07T13:33:16;15.85;;;14.27;;
53409;SDS011;66590;50.734;4.246;2023-05-07T13:36:00;15.95;;;14.45;;
53409;SDS011;66590;50.734;4.246;2023-05-07T13:39:27;16.73;;;15.13;;
53409;SDS011;66590;50.734;4.246;2023-05-07T13:42:29;16.70;;;15.05;;
53409;SDS011;66590;50.734;4.246;2023-05-07T13:45:40;17.42;;;15.63;;
53409;SDS011;66590;50.734;4.246;2023-05-07T13:48:25;18.25;;;16.45;;
53409;SDS011;66590;50.734;4.246;2023-05-07T13:51:03;17.33;;;15.60;;
53409;SDS011;66590;50.734;4.246;2023-05-07T13:54:01;15.93;;;14.30;;
53409;SDS011;66590;50.734;4.246;2023-05-07T13:59:19;18.05;;;16.25;;
53409;SDS011;66590;50.734;4.246;2023-05-07T14:01:59;16.50;;;14.90;;
53409;SDS011;66590;50.734;4.246;2023-05-07T14:04:43;18.92;;;17.13;;
53409;SDS011;66590;50.734;4.246;2023-05-07T14:07:20;17.65;;;15.77;;
53409;SDS011;66590;50.734;4.246;2023-05-07T14:10:02;17.83;;;16.02;;
53409;SDS011;66590;50.734;4.246;2023-05-07T14:12:47;16.35;;;14.75;;
53409;SDS011;66590;50.734;4.246;2023-05-07T14:15:52;16.92;;;15.30;;
53409;SDS011;66590;50.734;4.246;2023-05-07T14:18:49;15.68;;;14.07;;
53409;SDS011;66590;50.734;4.246;2023-05-07T14:21:43;13.05;;;11.35;;
53409;SDS011;66590;50.734;4.246;2023-05-07T14:24:30;13.43;;;12.02;;
53409;SDS011;66590;50.734;4.246;2023-05-07T14:28:25;15.63;;;13.75;;
53409;SDS011;66590;50.734;4.246;2023-05-07T14:30:05;15.00;;;13.50;;
53409;SDS011;66590;50.734;4.246;2023-05-07T14:32:45;14.98;;;13.57;;
53409;SDS011;66590;50.734;4.246;2023-05-07T14:38:54;15.38;;;13.80;;
53409;SDS011;66590;50.734;4.246;2023-05-07T14:41:37;13.77;;;12.48;;
53409;SDS011;66590;50.734;4.246;2023-05-07T14:44:21;13.02;;;11.68;;
53409;SDS011;66590;50.734;4.246;2023-05-07T14:46:59;12.82;;;11.15;;
53409;SDS011;66590;50.734;4.246;2023-05-07T14:49:32;11.80;;;10.63;;
53409;SDS011;66590;50.734;4.246;2023-05-07T14:52:17;10.70;;;9.55;;
53409;SDS011;66590;50.734;4.246;2023-05-07T14:54:57;11.65;;;9.90;;
53409;SDS011;66590;50.734;4.246;2023-05-07T14:57:38;12.02;;;10.93;;
53409;SDS011;66590;50.734;4.246;2023-05-07T15:00:23;10.63;;;9.52;;
53409;SDS011;66590;50.734;4.246;2023-05-07T15:03:05;10.32;;;9.35;;
53409;SDS011;66590;50.734;4.246;2023-05-07T15:05:37;10.50;;;9.43;;
53409;SDS011;66590;50.734;4.246;2023-05-07T15:08:04;8.38;;;7.57;;
53409;SDS011;66590;50.734;4.246;2023-05-07T15:10:34;10.10;;;8.38;;
53409;SDS011;66590;50.734;4.246;2023-05-07T15:13:02;10.10;;;8.23;;
53409;SDS011;66590;50.734;4.246;2023-05-07T15:15:29;10.15;;;8.63;;
53409;SDS011;66590;50.734;4.246;2023-05-07T15:18:00;9.63;;;8.63;;